createdAt,value
2018-08-19T00:00:22.689Z,18.40
2018-08-19T00:01:22.664Z,16.60
2018-08-19T00:02:22.640Z,20.70
2018-08-19T00:03:22.618Z,19.40
2018-08-19T00:04:22.598Z,17.00
2018-08-19T00:05:22.575Z,20.20
2018-08-19T00:06:22.547Z,16.90
2018-08-19T00:07:22.522Z,19.90
2018-08-19T00:08:22.506Z,20.50
2018-08-19T00:09:22.474Z,18.20
2018-08-19T00:10:22.449Z,21.00
2018-08-19T00:11:22.426Z,26.00
2018-08-19T00:12:22.405Z,23.00
2018-08-19T00:13:22.378Z,22.10
2018-08-19T00:14:22.355Z,20.10
2018-08-19T00:15:22.330Z,22.10
2018-08-19T00:16:22.308Z,18.10
2018-08-19T00:17:22.282Z,17.70
2018-08-19T00:18:22.258Z,18.30
2018-08-19T00:19:22.234Z,19.00
2018-08-19T00:20:22.211Z,18.60
2018-08-19T00:21:22.192Z,17.10
2018-08-19T00:22:22.165Z,16.40
2018-08-19T00:23:22.139Z,17.10
2018-08-19T00:24:22.116Z,17.70
2018-08-19T00:25:22.090Z,15.10
2018-08-19T00:26:22.069Z,17.30
2018-08-19T00:27:22.043Z,14.30
2018-08-19T00:28:22.020Z,22.50
2018-08-19T00:29:21.996Z,13.40
2018-08-19T00:30:21.971Z,17.70
2018-08-19T00:31:21.947Z,18.00
2018-08-19T00:32:21.926Z,18.00
2018-08-19T00:33:22.103Z,16.70
2018-08-19T00:34:22.077Z,18.20
2018-08-19T00:35:21.851Z,16.70
2018-08-19T00:36:25.865Z,20.30
2018-08-19T00:37:21.806Z,19.60
2018-08-19T00:38:21.778Z,17.90
2018-08-19T00:39:21.756Z,17.10
2018-08-19T00:40:21.731Z,19.30
2018-08-19T00:41:21.707Z,18.70
2018-08-19T00:42:21.692Z,19.00
2018-08-19T00:43:21.659Z,19.20
2018-08-19T00:44:21.637Z,13.80
2018-08-19T00:45:21.814Z,16.30
2018-08-19T00:46:21.587Z,15.70
2018-08-19T00:47:21.563Z,14.40
2018-08-19T00:48:21.539Z,16.10
2018-08-19T00:49:21.518Z,16.70
2018-08-19T00:50:21.490Z,15.10
2018-08-19T00:51:21.468Z,15.50
2018-08-19T00:52:21.443Z,15.30
2018-08-19T00:53:21.419Z,16.80
2018-08-19T00:54:21.407Z,16.20
2018-08-19T00:55:21.375Z,14.80
2018-08-19T00:56:21.349Z,16.40
2018-08-19T00:57:21.335Z,16.90
2018-08-19T00:58:21.299Z,13.30
2018-08-19T00:59:21.274Z,13.60
2018-08-19T01:00:21.249Z,16.50
2018-08-19T01:01:21.224Z,13.60
2018-08-19T01:02:21.250Z,17.90
2018-08-19T01:03:21.177Z,16.20
2018-08-19T01:04:21.152Z,14.40
2018-08-19T01:05:21.128Z,15.70
2018-08-19T01:06:21.104Z,14.10
2018-08-19T01:07:21.082Z,17.70
2018-08-19T01:08:21.056Z,16.30
2018-08-19T01:09:21.031Z,14.40
2018-08-19T01:10:21.007Z,13.20
2018-08-19T01:11:20.983Z,15.00
2018-08-19T01:12:20.959Z,15.70
2018-08-19T01:13:20.935Z,13.30
2018-08-19T01:14:20.910Z,13.60
2018-08-19T01:15:20.887Z,15.20
2018-08-19T01:16:20.863Z,12.50
2018-08-19T01:17:20.841Z,14.30
2018-08-19T01:18:20.813Z,15.60
2018-08-19T01:19:20.789Z,16.20
2018-08-19T01:20:20.765Z,13.30
2018-08-19T01:21:20.740Z,14.50
2018-08-19T01:22:20.716Z,15.80
2018-08-19T01:23:20.692Z,12.90
2018-08-19T01:24:20.669Z,20.00
2018-08-19T01:25:20.644Z,13.50
2018-08-19T01:26:20.622Z,15.90
2018-08-19T01:27:20.596Z,17.90
2018-08-19T01:28:20.572Z,14.30
2018-08-19T01:29:20.547Z,16.90
2018-08-19T01:30:20.522Z,18.30
2018-08-19T01:31:20.499Z,15.40
2018-08-19T01:32:20.476Z,17.30
2018-08-19T01:33:20.450Z,15.30
2018-08-19T01:34:20.669Z,14.80
2018-08-19T01:35:20.402Z,18.70
2018-08-19T01:36:20.380Z,16.70
2018-08-19T01:37:20.353Z,16.40
2018-08-19T01:38:20.329Z,15.10
2018-08-19T01:39:20.308Z,18.20
2018-08-19T01:40:20.281Z,16.00
2018-08-19T01:41:20.256Z,15.20
2018-08-19T01:42:20.232Z,20.20
2018-08-19T01:43:20.210Z,16.70
2018-08-19T01:44:20.184Z,15.40
2018-08-19T01:45:20.159Z,15.80
2018-08-19T01:46:20.135Z,19.30
2018-08-19T01:47:20.112Z,17.00
2018-08-19T01:48:20.087Z,20.10
2018-08-19T01:49:20.062Z,17.20
2018-08-19T01:50:20.038Z,19.60
2018-08-19T01:51:20.014Z,18.80
2018-08-19T01:52:19.990Z,18.80
2018-08-19T01:53:19.965Z,25.20
2018-08-19T01:54:19.941Z,20.40
2018-08-19T01:55:19.917Z,18.80
2018-08-19T01:56:19.900Z,20.80
2018-08-19T01:57:19.868Z,18.60
2018-08-19T01:58:19.848Z,20.10
2018-08-19T01:59:19.820Z,21.80
2018-08-19T02:00:19.795Z,22.20
2018-08-19T02:01:19.771Z,20.50
2018-08-19T02:02:19.747Z,19.30
2018-08-19T02:03:19.723Z,20.40
2018-08-19T02:04:19.698Z,20.20
2018-08-19T02:05:19.674Z,23.30
2018-08-19T02:06:20.501Z,20.00
2018-08-19T02:07:19.626Z,20.50
2018-08-19T02:08:19.604Z,19.80
2018-08-19T02:09:19.577Z,23.70
2018-08-19T02:10:19.555Z,19.30
2018-08-19T02:11:19.530Z,20.40
2018-08-19T02:12:19.506Z,17.90
2018-08-19T02:13:19.480Z,21.50
2018-08-19T02:14:19.456Z,18.80
2018-08-19T02:15:19.433Z,20.40
2018-08-19T02:16:19.410Z,22.00
2018-08-19T02:17:19.384Z,18.60
2018-08-19T02:18:19.361Z,18.10
2018-08-19T02:19:19.335Z,21.90
2018-08-19T02:20:19.313Z,23.60
2018-08-19T02:21:19.286Z,17.20
2018-08-19T02:22:19.262Z,21.00
2018-08-19T02:23:19.241Z,21.90
2018-08-19T02:24:19.217Z,17.20
2018-08-19T02:25:19.188Z,19.00
2018-08-19T02:26:19.167Z,18.10
2018-08-19T02:27:19.140Z,20.00
2018-08-19T02:28:19.117Z,19.60
2018-08-19T02:29:19.090Z,22.30
2018-08-19T02:30:19.072Z,24.00
2018-08-19T02:31:19.044Z,20.60
2018-08-19T02:32:19.019Z,17.50
2018-08-19T02:33:18.994Z,18.90
2018-08-19T02:34:18.969Z,22.10
2018-08-19T02:35:18.945Z,17.60
2018-08-19T02:36:18.925Z,17.50
2018-08-19T02:37:18.920Z,19.80
2018-08-19T02:38:18.871Z,20.60
2018-08-19T02:39:18.848Z,20.10
2018-08-19T02:40:18.824Z,17.40
2018-08-19T02:41:18.797Z,21.90
2018-08-19T02:42:18.776Z,18.40
2018-08-19T02:43:18.750Z,17.30
2018-08-19T02:44:18.727Z,22.30
2018-08-19T02:45:18.706Z,19.80
2018-08-19T02:46:18.676Z,17.70
2018-08-19T02:47:18.652Z,18.90
2018-08-19T02:48:18.627Z,18.40
2018-08-19T02:49:18.603Z,18.20
2018-08-19T02:50:18.578Z,16.60
2018-08-19T02:51:18.553Z,18.20
2018-08-19T02:52:18.529Z,18.30
2018-08-19T02:53:18.504Z,20.80
2018-08-19T02:54:18.480Z,16.70
2018-08-19T02:55:18.459Z,17.30
2018-08-19T02:56:18.431Z,15.20
2018-08-19T02:57:18.406Z,15.20
2018-08-19T02:58:18.382Z,15.10
2018-08-19T02:59:18.861Z,18.70
2018-08-19T03:00:18.341Z,18.30
2018-08-19T03:01:18.313Z,19.00
2018-08-19T03:02:18.283Z,17.50
2018-08-19T03:03:18.266Z,18.20
2018-08-19T03:04:18.239Z,20.10
2018-08-19T03:05:18.416Z,18.90
2018-08-19T03:06:18.189Z,13.00
2018-08-19T03:07:18.161Z,17.40
2018-08-19T03:08:18.137Z,18.40
2018-08-19T03:09:18.116Z,14.80
2018-08-19T03:10:18.092Z,15.30
2018-08-19T03:11:18.064Z,15.60
2018-08-19T03:12:18.040Z,14.20
2018-08-19T03:13:18.014Z,16.50
2018-08-19T03:14:17.991Z,18.40
2018-08-19T03:15:18.247Z,19.50
2018-08-19T03:16:17.942Z,12.90
2018-08-19T03:17:17.916Z,17.00
2018-08-19T03:18:17.891Z,14.60
2018-08-19T03:19:17.867Z,12.00
2018-08-19T03:20:17.842Z,15.80
2018-08-19T03:21:17.817Z,16.40
2018-08-19T03:22:17.793Z,16.00
2018-08-19T03:23:17.769Z,14.70
2018-08-19T03:24:17.745Z,15.10
2018-08-19T03:25:17.722Z,12.90
2018-08-19T03:26:17.702Z,15.50
2018-08-19T03:27:17.671Z,16.40
2018-08-19T03:28:17.947Z,20.30
2018-08-19T03:29:17.622Z,13.40
2018-08-19T03:30:17.604Z,11.70
2018-08-19T03:31:17.575Z,17.60
2018-08-19T03:32:17.549Z,16.20
2018-08-19T03:33:17.530Z,14.90
2018-08-19T03:34:17.500Z,13.10
2018-08-19T03:35:17.474Z,19.10
2018-08-19T03:36:17.451Z,11.80
2018-08-19T03:37:17.427Z,18.30
2018-08-19T03:38:17.402Z,16.60
2018-08-19T03:39:17.378Z,17.10
2018-08-19T03:40:18.453Z,14.80
2018-08-19T03:41:17.327Z,16.10
2018-08-19T03:42:17.304Z,15.30
2018-08-19T03:43:17.277Z,16.50
2018-08-19T03:44:17.256Z,12.70
2018-08-19T03:45:17.231Z,13.80
2018-08-19T03:46:17.205Z,14.20
2018-08-19T03:47:17.180Z,14.20
2018-08-19T03:48:17.156Z,14.60
2018-08-19T03:49:17.133Z,17.00
2018-08-19T03:50:17.108Z,14.50
2018-08-19T03:51:17.101Z,14.50
2018-08-19T03:52:17.058Z,13.50
2018-08-19T03:53:17.035Z,12.10
2018-08-19T03:54:17.009Z,12.40
2018-08-19T03:55:16.984Z,12.60
2018-08-19T03:56:16.960Z,12.60
2018-08-19T03:57:17.184Z,11.60
2018-08-19T03:58:16.909Z,15.90
2018-08-19T03:59:16.887Z,12.40
2018-08-19T04:00:16.861Z,16.00
2018-08-19T04:01:16.837Z,16.60
2018-08-19T04:02:16.812Z,11.90
2018-08-19T04:03:16.787Z,11.80
2018-08-19T04:04:16.771Z,11.30
2018-08-19T04:05:16.737Z,12.80
2018-08-19T04:06:16.713Z,12.70
2018-08-19T04:07:16.891Z,11.40
2018-08-19T04:08:16.672Z,13.50
2018-08-19T04:09:16.640Z,13.20
2018-08-19T04:10:16.614Z,11.30
2018-08-19T04:11:16.590Z,12.70
2018-08-19T04:12:16.566Z,17.30
2018-08-19T04:13:16.540Z,16.70
2018-08-19T04:14:16.516Z,12.90
2018-08-19T04:15:16.491Z,17.10
2018-08-19T04:16:16.469Z,15.80
2018-08-19T04:17:16.447Z,13.70
2018-08-19T04:18:16.415Z,12.90
2018-08-19T04:19:16.392Z,16.30
2018-08-19T04:20:16.368Z,16.40
2018-08-19T04:21:16.345Z,13.80
2018-08-19T04:22:16.319Z,12.50
2018-08-19T04:23:16.297Z,12.60
2018-08-19T04:24:16.274Z,13.00
2018-08-19T04:25:16.243Z,13.00
2018-08-19T04:26:16.219Z,12.90
2018-08-19T04:27:16.195Z,13.80
2018-08-19T04:28:16.171Z,15.90
2018-08-19T04:29:16.146Z,12.90
2018-08-19T04:30:16.120Z,18.20
2018-08-19T04:31:16.098Z,17.50
2018-08-19T04:32:16.071Z,14.10
2018-08-19T04:33:16.046Z,15.30
2018-08-19T04:34:16.021Z,12.50
2018-08-19T04:35:15.997Z,14.80
2018-08-19T04:36:15.974Z,13.60
2018-08-19T04:37:15.947Z,16.30
2018-08-19T04:38:15.927Z,12.90
2018-08-19T04:39:15.899Z,14.50
2018-08-19T04:40:15.874Z,16.90
2018-08-19T04:41:15.848Z,15.20
2018-08-19T04:42:15.969Z,15.70
2018-08-19T04:43:15.800Z,18.00
2018-08-19T04:44:15.779Z,16.50
2018-08-19T04:45:15.751Z,15.90
2018-08-19T04:46:15.726Z,15.40
2018-08-19T04:47:15.703Z,16.10
2018-08-19T04:48:15.678Z,18.10
2018-08-19T04:49:15.653Z,15.90
2018-08-19T04:50:15.679Z,14.60
2018-08-19T04:51:15.605Z,17.60
2018-08-19T04:52:15.580Z,16.30
2018-08-19T04:53:15.555Z,17.00
2018-08-19T04:54:15.531Z,16.70
2018-08-19T04:55:15.508Z,16.60
2018-08-19T04:56:15.483Z,14.80
2018-08-19T04:57:15.471Z,16.30
2018-08-19T04:58:15.435Z,17.30
2018-08-19T04:59:15.415Z,17.10
2018-08-19T05:00:15.387Z,13.70
2018-08-19T05:01:15.370Z,16.00
2018-08-19T05:02:15.453Z,15.20
2018-08-19T05:03:15.315Z,15.60
2018-08-19T05:04:15.291Z,15.80
2018-08-19T05:05:15.270Z,15.30
2018-08-19T05:06:15.247Z,14.50
2018-08-19T05:07:15.219Z,18.40
2018-08-19T05:08:15.323Z,18.50
2018-08-19T05:09:15.176Z,14.50
2018-08-19T05:10:15.146Z,16.40
2018-08-19T05:11:15.123Z,18.40
2018-08-19T05:12:15.100Z,14.20
2018-08-19T05:13:15.074Z,16.50
2018-08-19T05:14:15.051Z,14.20
2018-08-19T05:15:15.030Z,15.90
2018-08-19T05:16:15.005Z,15.80
2018-08-19T05:17:14.979Z,17.10
2018-08-19T05:18:14.958Z,15.60
2018-08-19T05:19:14.932Z,14.60
2018-08-19T05:20:14.911Z,17.10
2018-08-19T05:21:14.887Z,16.60
2018-08-19T05:22:14.861Z,15.00
2018-08-19T05:23:14.837Z,15.30
2018-08-19T05:24:14.816Z,16.60
2018-08-19T05:25:14.790Z,14.30
2018-08-19T05:26:14.767Z,12.90
2018-08-19T05:27:14.742Z,13.10
2018-08-19T05:28:14.777Z,14.80
2018-08-19T05:29:14.694Z,14.50
2018-08-19T05:30:14.671Z,13.80
2018-08-19T05:31:14.648Z,13.20
2018-08-19T05:32:14.624Z,21.50
2018-08-19T05:33:14.604Z,17.50
2018-08-19T05:34:14.580Z,13.50
2018-08-19T05:35:14.554Z,17.00
2018-08-19T05:36:14.530Z,16.90
2018-08-19T05:37:14.505Z,17.20
2018-08-19T05:38:14.482Z,16.20
2018-08-19T05:39:14.463Z,14.20
2018-08-19T05:40:14.436Z,17.40
2018-08-19T05:41:14.411Z,16.80
2018-08-19T05:42:14.388Z,17.00
2018-08-19T05:43:14.363Z,16.70
2018-08-19T05:44:14.342Z,23.50
2018-08-19T05:45:14.319Z,16.20
2018-08-19T05:46:14.294Z,18.80
2018-08-19T05:47:14.287Z,18.30
2018-08-19T05:48:14.247Z,17.20
2018-08-19T05:49:14.222Z,21.30
2018-08-19T05:50:14.202Z,19.80
2018-08-19T05:51:14.176Z,19.10
2018-08-19T05:52:14.152Z,18.70
2018-08-19T05:53:14.128Z,21.50
2018-08-19T05:54:14.110Z,20.00
2018-08-19T05:55:14.081Z,20.70
2018-08-19T05:56:14.062Z,22.20
2018-08-19T05:57:14.032Z,16.60
2018-08-19T05:58:14.213Z,22.00
2018-08-19T05:59:13.988Z,16.60
2018-08-19T06:00:13.971Z,19.10
2018-08-19T06:01:14.044Z,20.30
2018-08-19T06:02:13.919Z,17.90
2018-08-19T06:03:13.892Z,17.50
2018-08-19T06:04:13.906Z,19.50
2018-08-19T06:05:13.850Z,19.70
2018-08-19T06:06:13.822Z,16.70
2018-08-19T06:07:13.799Z,23.50
2018-08-19T06:08:13.775Z,23.00
2018-08-19T06:09:13.751Z,18.90
2018-08-19T06:10:13.729Z,16.90
2018-08-19T06:11:13.705Z,22.60
2018-08-19T06:12:13.681Z,22.90
2018-08-19T06:13:13.657Z,20.90
2018-08-19T06:14:13.634Z,19.10
2018-08-19T06:15:13.628Z,24.30
2018-08-19T06:16:13.588Z,19.20
2018-08-19T06:17:13.564Z,21.20
2018-08-19T06:18:13.542Z,20.10
2018-08-19T06:19:13.521Z,19.80
2018-08-19T06:20:13.494Z,18.50
2018-08-19T06:21:13.469Z,18.80
2018-08-19T06:22:13.448Z,24.10
2018-08-19T06:23:13.426Z,24.30
2018-08-19T06:24:13.405Z,19.00
2018-08-19T06:25:13.377Z,19.30
2018-08-19T06:26:13.355Z,17.90
2018-08-19T06:27:13.334Z,18.60
2018-08-19T06:28:13.308Z,23.00
2018-08-19T06:29:13.285Z,18.30
2018-08-19T06:30:13.312Z,16.40
2018-08-19T06:31:13.324Z,15.20
2018-08-19T06:32:13.216Z,16.40
2018-08-19T06:33:13.192Z,25.40
2018-08-19T06:34:13.168Z,22.70
2018-08-19T06:35:13.146Z,16.60
2018-08-19T06:36:13.124Z,18.10
2018-08-19T06:37:13.099Z,17.20
2018-08-19T06:38:13.076Z,21.60
2018-08-19T06:39:13.053Z,25.00
2018-08-19T06:40:13.030Z,19.00
2018-08-19T06:41:13.307Z,24.90
2018-08-19T06:42:12.990Z,20.70
2018-08-19T06:43:13.113Z,18.50
2018-08-19T06:44:12.946Z,18.20
2018-08-19T06:45:12.913Z,18.50
2018-08-19T06:46:12.892Z,18.00
2018-08-19T06:47:12.871Z,21.60
2018-08-19T06:48:12.845Z,16.90
2018-08-19T06:49:12.823Z,17.30
2018-08-19T06:50:12.801Z,17.90
2018-08-19T06:51:12.843Z,21.80
2018-08-19T06:52:12.771Z,22.20
2018-08-19T06:53:12.732Z,19.60
2018-08-19T06:54:12.710Z,19.70
2018-08-19T06:55:12.692Z,21.60
2018-08-19T06:56:12.665Z,20.00
2018-08-19T06:57:12.640Z,20.30
2018-08-19T06:58:12.619Z,18.80
2018-08-19T06:59:12.595Z,20.00
2018-08-19T07:00:12.578Z,17.10
2018-08-19T07:01:12.552Z,16.10
2018-08-19T07:02:12.529Z,17.30
2018-08-19T07:03:12.521Z,14.60
2018-08-19T07:04:12.488Z,17.60
2018-08-19T07:05:12.462Z,22.40
2018-08-19T07:06:12.454Z,18.60
2018-08-19T07:07:12.417Z,19.70
2018-08-19T07:08:12.394Z,18.60
2018-08-19T07:09:12.371Z,21.20
2018-08-19T07:10:12.349Z,18.20
2018-08-19T07:11:12.330Z,22.20
2018-08-19T07:12:12.305Z,19.60
2018-08-19T07:13:12.282Z,21.00
2018-08-19T07:14:12.462Z,21.10
2018-08-19T07:15:12.237Z,16.90
2018-08-19T07:16:12.216Z,15.80
2018-08-19T07:17:12.197Z,21.50
2018-08-19T07:18:12.174Z,18.60
2018-08-19T07:19:12.149Z,22.30
2018-08-19T07:20:12.178Z,19.30
2018-08-19T07:21:12.313Z,22.80
2018-08-19T07:22:12.090Z,20.10
2018-08-19T07:23:12.061Z,24.80
2018-08-19T07:24:12.040Z,19.30
2018-08-19T07:25:12.017Z,24.50
2018-08-19T07:26:11.995Z,25.50
2018-08-19T07:27:12.176Z,22.80
2018-08-19T07:28:12.052Z,23.60
2018-08-19T07:29:11.935Z,22.00
2018-08-19T07:30:11.908Z,24.00
2018-08-19T07:31:11.887Z,18.20
2018-08-19T07:32:11.867Z,20.00
2018-08-19T07:33:11.843Z,20.00
2018-08-19T07:34:12.024Z,17.80
2018-08-19T07:35:11.802Z,20.80
2018-08-19T07:36:11.779Z,19.80
2018-08-19T07:37:11.840Z,20.40
2018-08-19T07:38:11.743Z,22.40
2018-08-19T07:39:11.717Z,22.10
2018-08-19T07:40:11.693Z,15.20
2018-08-19T07:41:11.670Z,19.40
2018-08-19T07:42:11.655Z,18.00
2018-08-19T07:43:11.629Z,16.80
2018-08-19T07:44:11.607Z,23.30
2018-08-19T07:45:11.584Z,16.70
2018-08-19T07:46:11.563Z,19.10
2018-08-19T07:47:11.540Z,21.60
2018-08-19T07:48:11.520Z,19.10
2018-08-19T07:49:11.700Z,15.50
2018-08-19T07:50:11.476Z,16.40
2018-08-19T07:51:11.454Z,24.00
2018-08-19T07:52:11.435Z,24.10
2018-08-19T07:53:11.412Z,17.00
2018-08-19T07:54:11.398Z,24.00
2018-08-19T07:55:11.368Z,22.10
2018-08-19T07:56:11.347Z,24.50
2018-08-19T07:57:11.325Z,19.80
2018-08-19T07:58:11.506Z,24.40
2018-08-19T07:59:11.282Z,20.00
2018-08-19T08:00:11.261Z,20.70
2018-08-19T08:01:11.242Z,26.40
2018-08-19T08:02:11.217Z,25.30
2018-08-19T08:03:11.200Z,20.00
2018-08-19T08:04:11.175Z,24.70
2018-08-19T08:05:11.156Z,19.30
2018-08-19T08:06:11.132Z,23.10
2018-08-19T08:07:11.114Z,20.30
2018-08-19T08:08:11.093Z,19.20
2018-08-19T08:09:11.068Z,18.80
2018-08-19T08:10:11.249Z,26.90
2018-08-19T08:11:11.029Z,16.80
2018-08-19T08:12:11.006Z,23.80
2018-08-19T08:13:10.982Z,29.40
2018-08-19T08:14:10.962Z,21.80
2018-08-19T08:15:10.948Z,23.80
2018-08-19T08:16:10.919Z,24.90
2018-08-19T08:17:10.897Z,20.00
2018-08-19T08:18:10.876Z,27.10
2018-08-19T08:19:10.856Z,27.50
2018-08-19T08:20:10.838Z,25.40
2018-08-19T08:21:10.858Z,24.70
2018-08-19T08:22:10.791Z,24.90
2018-08-19T08:23:10.771Z,24.30
2018-08-19T08:24:10.749Z,26.50
2018-08-19T08:25:10.729Z,23.60
2018-08-19T08:26:10.711Z,23.00
2018-08-19T08:27:10.690Z,19.10
2018-08-19T08:28:10.671Z,24.40
2018-08-19T08:29:10.686Z,23.50
2018-08-19T08:30:10.622Z,23.30
2018-08-19T08:31:10.603Z,20.30
2018-08-19T08:32:10.585Z,17.00
2018-08-19T08:33:11.165Z,19.90
2018-08-19T08:34:10.577Z,21.80
2018-08-19T08:35:10.522Z,25.70
2018-08-19T08:36:10.742Z,22.00
2018-08-19T08:37:10.480Z,23.40
2018-08-19T08:38:10.455Z,28.60
2018-08-19T08:39:10.434Z,21.70
2018-08-19T08:41:56.583Z,23.60
2018-08-19T08:42:52.727Z,22.60
2018-08-19T08:43:52.504Z,25.30
2018-08-19T08:44:52.483Z,23.50
2018-08-19T08:45:52.667Z,19.30
2018-08-19T08:46:52.441Z,20.20
2018-08-19T08:47:52.554Z,18.30
2018-08-19T08:48:52.398Z,19.20
2018-08-19T08:49:52.378Z,24.30
2018-08-19T08:50:52.359Z,24.10
2018-08-19T08:51:52.337Z,22.40
2018-08-19T08:52:52.316Z,23.00
2018-08-19T08:53:52.295Z,21.90
2018-08-19T08:54:52.278Z,23.50
2018-08-19T08:55:52.255Z,21.80
2018-08-19T08:56:52.232Z,22.90
2018-08-19T08:58:34.571Z,22.50
2018-08-19T08:59:34.345Z,20.90
2018-08-19T09:00:34.324Z,24.10
2018-08-19T09:01:34.309Z,20.70
2018-08-19T09:02:34.289Z,22.60
2018-08-19T09:03:34.260Z,24.10
2018-08-19T09:04:34.240Z,24.70
2018-08-19T09:05:34.224Z,24.00
2018-08-19T09:06:34.199Z,25.60
2018-08-19T09:07:34.378Z,24.00
2018-08-19T09:08:34.156Z,24.60
2018-08-19T09:09:34.135Z,25.60
2018-08-19T09:10:34.115Z,22.50
2018-08-19T09:11:34.095Z,20.40
2018-08-19T09:12:34.073Z,24.40
2018-08-19T09:13:34.055Z,24.60
2018-08-19T09:14:34.032Z,22.10
2018-08-19T09:15:34.012Z,24.80
2018-08-19T09:16:33.994Z,26.50
2018-08-19T09:17:33.970Z,24.10
2018-08-19T09:18:33.951Z,20.20
2018-08-19T09:19:33.928Z,22.40
2018-08-19T09:20:33.907Z,16.30
2018-08-19T09:21:33.887Z,18.50
2018-08-19T09:22:34.069Z,25.00
2018-08-19T09:23:33.846Z,23.50
2018-08-19T09:25:16.182Z,24.20
2018-08-19T09:27:40.471Z,25.20
2018-08-19T09:28:40.247Z,22.50
2018-08-19T09:29:40.429Z,22.70
2018-08-19T09:30:40.457Z,29.70
2018-08-19T09:31:40.187Z,24.50
2018-08-19T09:37:35.454Z,19.40
2018-08-19T09:38:35.226Z,21.00
2018-08-19T09:39:35.205Z,22.30
2018-08-19T09:40:35.197Z,27.10
2018-08-19T09:43:41.836Z,24.70
2018-08-19T09:44:41.609Z,21.30
2018-08-19T09:45:41.590Z,21.70
2018-08-19T09:46:41.570Z,23.70
2018-08-19T09:47:41.858Z,21.80
2018-08-19T09:49:23.888Z,22.30
2018-08-19T09:50:23.868Z,22.70
2018-08-19T09:51:23.650Z,22.60
2018-08-19T09:52:23.829Z,24.00
2018-08-19T09:53:23.607Z,24.00
2018-08-19T09:54:23.588Z,20.00
2018-08-19T09:55:23.771Z,22.70
2018-08-19T10:00:36.686Z,15.80
2018-08-19T10:01:36.481Z,14.60
2018-08-19T10:02:36.445Z,17.80
2018-08-19T10:03:36.427Z,19.40
2018-08-19T10:05:18.765Z,19.00
2018-08-19T10:06:18.550Z,17.00
2018-08-19T10:07:18.538Z,19.90
2018-08-19T10:08:18.507Z,18.40
2018-08-19T10:09:18.488Z,19.80
2018-08-19T10:10:18.471Z,18.90
2018-08-19T10:11:18.450Z,19.50
2018-08-19T10:12:18.431Z,16.30
2018-08-19T10:13:18.416Z,18.40
2018-08-19T10:14:18.393Z,14.30
2018-08-19T10:15:18.374Z,19.90
2018-08-19T10:16:18.361Z,16.60
2018-08-19T10:17:18.337Z,13.30
2018-08-19T10:18:18.322Z,21.30
2018-08-19T10:19:18.298Z,19.30
2018-08-19T10:23:49.258Z,11.90
2018-08-19T10:24:49.439Z,11.60
2018-08-19T10:25:49.013Z,12.90
2018-08-19T10:27:31.350Z,11.70
2018-08-19T10:28:31.128Z,16.20
2018-08-19T10:29:31.112Z,12.30
2018-08-19T10:30:31.088Z,16.80
2018-08-19T10:31:31.070Z,15.70
2018-08-19T10:32:31.052Z,13.40
2018-08-19T10:33:31.027Z,12.20
2018-08-19T10:34:31.007Z,14.50
2018-08-19T10:35:30.993Z,13.30
2018-08-19T10:36:30.991Z,16.80
2018-08-19T10:37:30.946Z,15.20
2018-08-19T10:38:30.933Z,19.60
2018-08-19T10:39:30.907Z,14.60
2018-08-19T10:40:30.886Z,13.00
2018-08-19T10:41:30.968Z,16.20
2018-08-19T10:42:30.847Z,15.30
2018-08-19T10:43:30.828Z,14.60
2018-08-19T10:44:30.807Z,19.30
2018-08-19T10:45:30.790Z,15.30
2018-08-19T10:46:30.772Z,10.10
2018-08-19T10:47:30.749Z,19.40
2018-08-19T10:48:30.730Z,20.60
2018-08-19T10:49:30.710Z,12.40
2018-08-19T10:50:30.690Z,20.00
2018-08-19T10:51:30.670Z,20.00
2018-08-19T10:52:30.652Z,19.50
2018-08-19T10:53:30.653Z,18.80
2018-08-19T10:54:30.611Z,19.70
2018-08-19T10:55:30.597Z,16.20
2018-08-19T10:56:30.571Z,19.30
2018-08-19T10:58:12.908Z,23.70
2018-08-19T10:59:12.890Z,24.40
2018-08-19T11:00:12.668Z,19.30
2018-08-19T11:01:12.649Z,19.40
2018-08-19T11:02:12.832Z,23.20
2018-08-19T11:03:12.618Z,22.00
2018-08-19T11:04:12.592Z,23.80
2018-08-19T11:05:12.571Z,19.30
2018-08-19T11:06:12.553Z,19.50
2018-08-19T11:07:12.533Z,17.60
2018-08-19T11:08:12.514Z,19.90
2018-08-19T11:09:12.500Z,17.70
2018-08-19T11:10:12.779Z,17.00
2018-08-19T11:11:12.459Z,26.30
2018-08-19T11:12:12.641Z,21.30
2018-08-19T11:13:12.424Z,22.00
2018-08-19T11:14:12.401Z,24.30
2018-08-19T11:15:12.385Z,16.60
2018-08-19T11:16:12.869Z,23.90
2018-08-19T11:17:12.344Z,25.00
2018-08-19T11:18:12.326Z,15.70
2018-08-19T11:19:12.306Z,18.30
2018-08-19T11:20:12.301Z,22.20
2018-08-19T11:21:12.269Z,17.10
2018-08-19T11:22:12.552Z,23.50
2018-08-19T11:23:12.232Z,19.60
2018-08-19T11:24:12.213Z,24.00
2018-08-19T11:25:12.197Z,18.50
2018-08-19T11:26:12.176Z,22.90
2018-08-19T11:27:12.157Z,18.50
2018-08-19T11:28:12.138Z,15.00
2018-08-19T11:29:12.123Z,15.30
2018-08-19T11:30:12.101Z,17.40
2018-08-19T11:31:12.085Z,18.10
2018-08-19T11:32:12.063Z,20.70
2018-08-19T11:33:12.045Z,21.40
2018-08-19T11:34:12.026Z,17.00
2018-08-19T11:35:12.010Z,18.70
2018-08-19T11:36:11.989Z,17.30
2018-08-19T11:37:11.973Z,19.90
2018-08-19T11:38:11.950Z,22.50
2018-08-19T11:39:11.930Z,14.60
2018-08-19T11:40:11.912Z,22.90
2018-08-19T11:41:11.892Z,18.30
2018-08-19T11:42:11.882Z,18.70
2018-08-19T11:43:11.883Z,17.70
2018-08-19T11:44:11.836Z,16.10
2018-08-19T11:45:11.816Z,18.00
2018-08-19T11:46:12.000Z,20.90
2018-08-19T11:47:11.781Z,15.60
2018-08-19T11:48:11.963Z,18.10
2018-08-19T11:49:11.743Z,19.40
2018-08-19T11:50:11.726Z,20.80
2018-08-19T11:51:11.907Z,21.30
2018-08-19T11:52:11.891Z,14.90
2018-08-19T11:53:14.902Z,21.80
2018-08-19T11:54:54.016Z,21.30
2018-08-19T11:55:53.997Z,19.20
2018-08-19T11:57:36.135Z,18.70
2018-08-19T11:58:35.916Z,15.80
2018-08-19T11:59:36.107Z,14.60
2018-08-19T12:00:36.084Z,20.30
2018-08-19T12:02:18.230Z,16.80
2018-08-19T12:03:18.208Z,19.10
2018-08-19T12:04:18.195Z,17.90
2018-08-19T12:05:18.176Z,18.90
2018-08-19T12:06:18.163Z,18.20
2018-08-19T12:07:20.760Z,18.60
2018-08-19T12:08:19.336Z,21.70
2018-08-19T12:09:18.107Z,19.00
2018-08-19T12:10:18.089Z,26.20
2018-08-19T12:11:17.868Z,20.30
2018-08-19T12:12:17.850Z,19.70
2018-08-19T12:13:18.849Z,23.80
2018-08-19T12:15:00.206Z,21.20
2018-08-19T12:16:00.162Z,18.90
2018-08-19T12:17:00.193Z,22.30
2018-08-19T12:18:42.288Z,20.90
2018-08-19T12:19:42.275Z,24.60
2018-08-19T12:20:42.256Z,19.60
2018-08-19T12:21:42.240Z,18.90
2018-08-19T12:22:42.027Z,17.30
2018-08-19T12:23:42.006Z,20.40
2018-08-19T12:24:41.995Z,20.30
2018-08-19T12:25:41.976Z,20.00
2018-08-19T12:26:42.163Z,19.50
2018-08-19T12:27:42.291Z,21.70
2018-08-19T12:28:41.935Z,19.30
2018-08-19T12:29:41.915Z,20.20
2018-08-19T12:30:41.907Z,15.50
2018-08-19T12:31:41.886Z,12.20
2018-08-19T12:32:41.873Z,19.20
2018-08-19T12:33:41.860Z,16.70
2018-08-19T12:34:41.841Z,17.10
2018-08-19T12:35:41.848Z,17.30
2018-08-19T12:36:41.811Z,19.40
2018-08-19T12:37:41.871Z,18.40
2018-08-19T12:38:41.780Z,19.80
2018-08-19T12:39:41.765Z,17.40
2018-08-19T12:40:41.954Z,16.00
2018-08-19T12:41:41.739Z,17.50
2018-08-19T12:42:41.923Z,20.40
2018-08-19T12:43:41.707Z,22.50
2018-08-19T12:44:42.152Z,19.40
2018-08-19T12:45:41.676Z,19.70
2018-08-19T12:46:41.863Z,21.70
2018-08-19T12:47:41.848Z,26.10
2018-08-19T12:48:42.238Z,20.80
2018-08-19T12:49:41.615Z,23.50
2018-08-19T12:50:42.106Z,19.70
2018-08-19T12:51:41.588Z,23.30
2018-08-19T12:52:41.573Z,20.90
2018-08-19T12:53:41.559Z,16.40
2018-08-19T12:54:41.545Z,15.10
2018-08-19T12:55:41.533Z,19.70
2018-08-19T12:56:41.816Z,22.00
2018-08-19T12:57:41.501Z,17.00
2018-08-19T12:58:41.487Z,15.00
2018-08-19T12:59:41.674Z,17.50
2018-08-19T13:00:41.458Z,11.50
2018-08-19T13:01:41.446Z,12.00
2018-08-19T13:02:41.434Z,15.10
2018-08-19T13:03:41.416Z,14.60
2018-08-19T13:04:41.401Z,10.40
2018-08-19T13:05:41.390Z,13.40
2018-08-19T13:06:41.372Z,17.80
2018-08-19T13:07:41.362Z,17.30
2018-08-19T13:08:41.592Z,15.80
2018-08-19T13:09:41.327Z,19.60
2018-08-19T13:10:41.514Z,15.50
2018-08-19T13:11:41.297Z,16.60
2018-08-19T13:12:41.284Z,19.50
2018-08-19T13:13:41.272Z,16.20
2018-08-19T13:14:41.253Z,15.10
2018-08-19T13:15:41.242Z,14.50
2018-08-19T13:16:41.223Z,14.60
2018-08-19T13:17:41.208Z,14.30